< Cyclone 200920 2009 Season Cyclone 201001 >
Cyclone 200923 (Kirrily)
General InformationTrack Information on Google MapsDetailed Wind InformationList of All Images || ResourceGoogle EarthGE AnimationAtom FeedGeoJSON
Detalied Best Track (Time Zone = UTC)
Year Month Day Hour Lat. Long. Pressure (hPa) Wind (kt) Class Image Chart
2009 4 17 06 -7.2 133.3 1005 20 2 Image --
2009 4 17 12 -7.3 133.0 1007 20 2 Image --
2009 4 17 18 -7.6 132.6 1007 20 2 Image --
2009 4 18 00 -7.9 132.3 1008 20 2 Image --
2009 4 18 06 -8.3 131.9 1006 20 2 Image --
2009 4 18 12 -8.2 131.5 1008 20 2 Image --
2009 4 18 18 -8.0 131.0 1007 20 2 Image --
2009 4 19 00 -7.7 130.6 1008 25 2 Image --
2009 4 19 06 -7.6 130.3 1005 25 2 Image --
2009 4 19 12 -7.6 130.0 1007 20 2 Image --
2009 4 19 18 -7.5 129.7 1006 20 2 Image --
2009 4 20 00 -7.3 129.6 1007 25 2 Image --
2009 4 20 06 -6.9 129.9 1004 25 2 Image --
2009 4 20 12 -6.9 130.8 1006 20 2 Image --
2009 4 20 18 -6.9 131.5 1005 20 2 Image --
2009 4 21 00 -6.9 132.0 1007 25 2 Image --
2009 4 21 06 -7.0 132.5 1004 25 2 Image --
2009 4 21 12 -7.1 132.8 1006 20 2 Image --
2009 4 21 18 -7.1 133.0 1006 20 2 Image --
2009 4 22 00 -7.2 133.2 1007 20 2 Image --
2009 4 22 06 -7.3 133.2 1005 25 2 Image --
2009 4 22 12 -7.4 133.0 1007 20 2 Image --
2009 4 22 18 -7.5 132.9 1006 25 2 Image --
2009 4 23 00 -7.7 132.9 1007 25 2 Image --
2009 4 23 06 -7.9 133.0 1006 25 2 Image --
2009 4 23 12 -8.2 133.2 1008 20 2 Image --
2009 4 23 18 -8.4 133.5 1008 25 2 Image --
2009 4 24 00 -8.7 134.0 1008 20 2 Image --
2009 4 24 06 -8.7 134.5 1006 20 2 Image --
2009 4 24 12 -8.7 134.8 1008 20 2 Image --
2009 4 24 18 -8.5 135.0 1007 25 2 Image --
2009 4 25 00 -8.2 135.1 1008 20 2 Image --
2009 4 25 06 -8.0 135.4 1007 25 2 Image --
2009 4 25 12 -7.9 135.6 1006 25 2 Image --
2009 4 25 18 -7.8 135.8 1005 25 2 Image --
2009 4 26 00 -7.6 135.7 1004 30 2 Image --
2009 4 26 03 -7.6 135.4 1004 30 2 Image --
2009 4 26 06 -7.4 135.1 1003 30 2 Image --
2009 4 26 09 -7.4 135.0 1002 30 2 Image --
2009 4 26 12 -7.3 134.9 999 35 3 Image --
2009 4 26 15 -7.2 134.8 999 35 3 Image --
2009 4 26 18 -7.1 134.6 999 35 3 Image --
2009 4 26 21 -6.8 134.5 999 35 3 Image --
2009 4 27 00 -6.6 134.4 999 35 3 Image --
2009 4 27 03 -6.5 134.4 999 35 3 Image --
2009 4 27 06 -6.3 134.3 999 35 3 Image --
2009 4 27 09 -6.1 134.2 999 35 3 Image --
2009 4 27 12 -6.1 134.1 999 35 3 Image --
2009 4 27 15 -6.1 133.9 999 35 3 Image --
2009 4 27 18 -6.0 133.8 999 35 3 Image --
2009 4 27 21 -6.0 133.6 999 35 3 Image --
2009 4 28 00 -5.9 133.4 999 35 3 Image --
2009 4 28 03 -5.8 133.3 1002 30 2 Image --
2009 4 28 06 -5.6 133.0 1002 30 2 Image --
2009 4 28 09 -5.4 133.1 1004 30 2 Image --
2009 4 28 12 -5.3 133.2 1004 30 2 Image --
2009 4 28 15 -5.4 133.2 1007 25 2 Image --
2009 4 28 18 -5.4 133.2 1006 25 2 Image --
2009 4 28 21 -5.2 133.1 1006 25 2 Image --
2009 4 29 00 -5.1 133.0 1007 25 2 Image --
2009 4 29 03 -5.0 132.8 1007 25 2 Image --
2009 4 29 06 -5.0 132.7 1007 25 2 Image --
2009 4 29 12 -5.0 132.5 1009 20 2 Image --
2009 4 29 18 -4.9 132.4 1009 20 2 Image --
2009 4 30 00 -4.9 132.1 1009 20 2 Image --
2009 4 30 03 -5.0 131.9 1009 20 2 Image --
2009 4 30 06 -5.0 131.7 1009 25 2 Image --
2009 4 30 12 -5.0 131.4 1009 25 2 Image --
2009 4 30 18 -5.0 131.2 1009 25 2 Image --
2009 5 1 00 -5.1 131.0 1009 25 2 Image --
2009 5 1 03 -5.2 130.8 1009 25 2 Image --
2009 5 1 06 -5.0 130.5 1009 25 2 Image --
< Cyclone 200920 2009 Season Cyclone 201001 >

Help